Time;durP1;ratioP1;P1;durP2;ratioP2;P2;SDS_P1;SDS_P2;PMS_P1;PMS_P2;Temp;Humidity;BMP_temperature;BMP_pressure;BME280_temperature;BME280_humidity;BME280_pressure;Samples;Min_cycle;Max_cycle;Signal;HPM_P1;HPM_P2
2023/09/02 00:01:35;;;;;;;1.42;0.40;;;;;;;;;;10083787;29;20045;-90
2023/09/02 00:06:39;;;;;;;3.13;0.35;;;;;;;;;;10080864;29;20041;-89
2023/09/02 00:11:44;;;;;;;0.28;0.22;;;;;;;;;;10088587;29;20041;-88
2023/09/02 00:16:47;;;;;;;2.63;0.30;;;;;;;;;;10090978;29;20045;-88
2023/09/02 00:21:51;;;;;;;0.98;0.40;;;;;;;;;;10093154;29;20132;-89
2023/09/02 00:26:56;;;;;;;0.85;0.22;;;;;;;;;;10091193;29;20052;-88
2023/09/02 00:31:59;;;;;;;1.08;0.30;;;;;;;;;;10091739;29;20037;-90
2023/09/02 00:37:03;;;;;;;2.40;0.30;;;;;;;;;;10098305;29;20073;-88
2023/09/02 00:42:10;;;;;;;0.45;0.30;;;;;;;;;;10089480;29;20049;-88
2023/09/02 00:47:14;;;;;;;0.80;0.20;;;;;;;;;;10089313;29;20052;-87
2023/09/02 00:52:19;;;;;;;3.90;0.20;;;;;;;;;;10089194;29;20522;-88
2023/09/02 00:57:24;;;;;;;0.20;0.20;;;;;;;;;;10088802;29;20136;-90
2023/09/02 01:27:20;;;;;;;0.50;0.32;;;;;;;;;;10450991;23;20084;-85
2023/09/02 01:32:26;;;;;;;1.80;0.35;;;;;;;;;;10122930;29;20048;-84
2023/09/02 01:37:32;;;;;;;0.38;0.30;;;;;;;;;;10159307;29;20041;-85
2023/09/02 01:42:37;;;;;;;0.20;0.20;;;;;;;;;;10159385;29;20068;-87
2023/09/02 01:47:41;;;;;;;0.40;0.30;;;;;;;;;;10171867;29;20465;-87
2023/09/02 01:52:45;;;;;;;1.88;0.40;;;;;;;;;;10158520;29;20053;-84
2023/09/02 01:57:50;;;;;;;0.35;0.30;;;;;;;;;;10158161;29;20219;-85
2023/09/02 02:02:54;;;;;;;0.70;0.40;;;;;;;;;;10156612;29;20036;-85
2023/09/02 02:08:05;;;;;;;0.60;0.32;;;;;;;;;;10172963;29;20036;-85
2023/09/02 02:13:10;;;;;;;0.35;0.30;;;;;;;;;;10157092;29;20506;-85
2023/09/02 02:18:13;;;;;;;0.30;0.30;;;;;;;;;;10148732;29;20076;-85
2023/09/02 02:23:17;;;;;;;0.25;0.20;;;;;;;;;;10164091;29;20399;-84
2023/09/02 02:28:22;;;;;;;0.10;0.10;;;;;;;;;;10171385;29;20044;-85
2023/09/02 02:33:25;;;;;;;1.85;0.10;;;;;;;;;;10162036;29;20176;-85
2023/09/02 02:38:29;;;;;;;0.30;0.20;;;;;;;;;;10156389;29;20052;-86
2023/09/02 02:43:33;;;;;;;0.10;0.10;;;;;;;;;;10156575;29;20126;-87
2023/09/02 02:48:37;;;;;;;0.28;0.28;;;;;;;;;;10159557;29;20052;-86
2023/09/02 02:53:40;;;;;;;0.20;0.20;;;;;;;;;;10157249;29;20064;-87
2023/09/02 02:58:45;;;;;;;0.75;0.30;;;;;;;;;;10157511;29;20366;-87
2023/09/02 03:03:49;;;;;;;0.30;0.30;;;;;;;;;;10157696;29;20051;-86
2023/09/02 03:08:53;;;;;;;0.60;0.20;;;;;;;;;;10155521;29;20510;-84
2023/09/02 03:13:59;;;;;;;0.10;0.10;;;;;;;;;;10155162;29;20536;-84
2023/09/02 03:19:04;;;;;;;2.10;0.25;;;;;;;;;;10153991;29;20605;-84
2023/09/02 03:24:08;;;;;;;1.17;0.20;;;;;;;;;;10153874;29;20054;-84
2023/09/02 03:29:14;;;;;;;0.30;0.30;;;;;;;;;;10153654;29;20726;-84
2023/09/02 03:34:18;;;;;;;0.40;0.30;;;;;;;;;;10157412;29;20059;-84
2023/09/02 03:39:22;;;;;;;0.45;0.28;;;;;;;;;;10155347;29;20083;-85
2023/09/02 03:44:26;;;;;;;0.40;0.40;;;;;;;;;;10163516;29;20059;-85
2023/09/02 03:49:30;;;;;;;0.50;0.50;;;;;;;;;;10163632;29;20044;-85
2023/09/02 03:54:34;;;;;;;0.55;0.50;;;;;;;;;;10164628;29;20051;-85
2023/09/02 03:59:39;;;;;;;1.30;0.40;;;;;;;;;;10162450;29;20052;-84
2023/09/02 04:04:43;;;;;;;1.35;0.40;;;;;;;;;;10161878;29;20047;-85
2023/09/02 04:09:46;;;;;;;0.30;0.30;;;;;;;;;;10162644;29;20074;-84
2023/09/02 04:14:51;;;;;;;1.90;0.43;;;;;;;;;;10160178;29;20039;-84
2023/09/02 04:19:54;;;;;;;0.30;0.30;;;;;;;;;;10160637;29;20365;-85
2023/09/02 04:24:59;;;;;;;1.20;0.38;;;;;;;;;;10162010;29;20044;-84
2023/09/02 04:30:05;;;;;;;0.40;0.30;;;;;;;;;;10168573;29;20048;-85
2023/09/02 04:35:09;;;;;;;0.28;0.28;;;;;;;;;;10160595;29;20036;-84
2023/09/02 04:40:14;;;;;;;0.40;0.30;;;;;;;;;;10160693;29;20052;-85
2023/09/02 04:45:19;;;;;;;0.22;0.20;;;;;;;;;;10161252;29;20110;-84
2023/09/02 04:50:23;;;;;;;0.50;0.47;;;;;;;;;;10159964;29;20401;-84
2023/09/02 04:55:27;;;;;;;0.38;0.38;;;;;;;;;;10158628;29;20048;-84
2023/09/02 05:00:34;;;;;;;0.35;0.35;;;;;;;;;;10160337;29;20501;-84
2023/09/02 05:05:37;;;;;;;0.35;0.28;;;;;;;;;;10160106;29;20068;-85
2023/09/02 05:10:44;;;;;;;0.57;0.32;;;;;;;;;;10174998;29;20455;-85
2023/09/02 05:15:52;;;;;;;1.77;0.40;;;;;;;;;;10157230;29;20040;-86
2023/09/02 05:20:56;;;;;;;0.43;0.40;;;;;;;;;;10159267;29;20044;-84
2023/09/02 05:26:00;;;;;;;0.55;0.55;;;;;;;;;;10159001;29;20041;-85
2023/09/02 05:31:04;;;;;;;0.63;0.45;;;;;;;;;;10162098;29;20048;-84
2023/09/02 05:36:08;;;;;;;0.47;0.35;;;;;;;;;;10159139;29;20596;-84
2023/09/02 05:41:11;;;;;;;1.33;0.32;;;;;;;;;;10160817;29;20147;-85
2023/09/02 05:46:16;;;;;;;0.50;0.40;;;;;;;;;;10159666;29;20079;-85
2023/09/02 05:51:19;;;;;;;0.50;0.50;;;;;;;;;;10156683;29;20052;-84
2023/09/02 05:56:23;;;;;;;0.40;0.40;;;;;;;;;;10158174;29;20048;-85
2023/09/02 06:01:27;;;;;;;0.40;0.40;;;;;;;;;;10159232;29;20136;-85
2023/09/02 06:06:31;;;;;;;0.35;0.35;;;;;;;;;;10156047;29;20123;-85
2023/09/02 06:11:35;;;;;;;0.70;0.30;;;;;;;;;;10149269;29;20104;-84
2023/09/02 06:16:40;;;;;;;1.10;0.30;;;;;;;;;;10153809;29;20037;-85
2023/09/02 06:21:45;;;;;;;0.20;0.20;;;;;;;;;;10151392;29;20044;-83
2023/09/02 06:26:48;;;;;;;0.47;0.25;;;;;;;;;;10154254;29;20126;-83
2023/09/02 06:31:53;;;;;;;0.20;0.20;;;;;;;;;;10155703;29;20435;-83
2023/09/02 06:36:56;;;;;;;0.40;0.40;;;;;;;;;;10157255;29;20048;-83
2023/09/02 06:42:00;;;;;;;0.28;0.28;;;;;;;;;;10156659;29;20054;-84
2023/09/02 06:47:07;;;;;;;;;;;;;;;;;;10164126;29;20036;-84
2023/09/02 06:52:10;;;;;;;0.20;0.20;;;;;;;;;;10153153;29;19949;-84
2023/09/02 06:57:14;;;;;;;0.43;0.30;;;;;;;;;;10154584;29;20107;-83
2023/09/02 07:02:18;;;;;;;0.20;0.20;;;;;;;;;;10158219;29;20063;-83
2023/09/02 07:07:21;;;;;;;0.20;0.20;;;;;;;;;;10160669;29;20055;-84
2023/09/02 07:12:25;;;;;;;0.20;0.20;;;;;;;;;;10160087;29;20518;-83
2023/09/02 07:17:29;;;;;;;0.20;0.20;;;;;;;;;;10158447;29;20131;-84
2023/09/02 07:22:35;;;;;;;0.40;0.30;;;;;;;;;;10156415;29;20124;-85
2023/09/02 07:27:38;;;;;;;6.17;0.50;;;;;;;;;;10150271;29;20155;-84
2023/09/02 07:32:45;;;;;;;0.23;0.23;;;;;;;;;;10147963;29;20930;-85
2023/09/02 07:37:48;;;;;;;1.75;0.20;;;;;;;;;;10148629;29;20064;-85
2023/09/02 07:42:51;;;;;;;0.20;0.20;;;;;;;;;;10156050;29;20079;-84
2023/09/02 07:47:56;;;;;;;0.28;0.28;;;;;;;;;;10150565;29;20072;-84
2023/09/02 07:52:59;;;;;;;0.80;0.70;;;;;;;;;;10154148;29;20115;-84
2023/09/02 07:58:03;;;;;;;1.00;1.00;;;;;;;;;;10153764;29;20052;-84
2023/09/02 08:03:14;;;;;;;1.25;0.80;;;;;;;;;;10151171;29;20108;-84
2023/09/02 08:08:18;;;;;;;0.70;0.70;;;;;;;;;;10149098;29;20091;-85
2023/09/02 08:13:21;;;;;;;0.60;0.60;;;;;;;;;;10152889;29;20135;-84
2023/09/02 08:18:26;;;;;;;1.70;0.80;;;;;;;;;;10152959;29;20076;-85
2023/09/02 08:23:29;;;;;;;1.20;0.73;;;;;;;;;;10153136;29;20068;-85
2023/09/02 08:28:36;;;;;;;1.08;0.47;;;;;;;;;;10155356;29;20044;-85
2023/09/02 08:33:41;;;;;;;0.50;0.50;;;;;;;;;;10159408;29;20505;-85
2023/09/02 08:38:44;;;;;;;0.80;0.80;;;;;;;;;;10159134;29;20119;-84
2023/09/02 08:43:48;;;;;;;0.60;0.60;;;;;;;;;;10160803;29;20048;-85
2023/09/02 08:48:55;;;;;;;0.50;0.50;;;;;;;;;;10158857;29;20131;-84
2023/09/02 08:54:00;;;;;;;0.40;0.40;;;;;;;;;;10161553;29;20048;-85
2023/09/02 08:59:03;;;;;;;0.63;0.40;;;;;;;;;;10160887;29;20115;-84
2023/09/02 09:04:09;;;;;;;0.60;0.50;;;;;;;;;;10158728;29;20155;-85
2023/09/02 09:09:13;;;;;;;0.60;0.50;;;;;;;;;;10159243;29;20123;-85
2023/09/02 09:14:21;;;;;;;0.40;0.40;;;;;;;;;;10155913;29;20045;-85
2023/09/02 09:19:27;;;;;;;0.30;0.30;;;;;;;;;;10143549;29;20047;-85
2023/09/02 09:24:30;;;;;;;0.28;0.17;;;;;;;;;;10158331;29;20040;-84
2023/09/02 09:29:41;;;;;;;0.45;0.40;;;;;;;;;;10157139;29;20040;-85
2023/09/02 09:34:47;;;;;;;0.65;0.57;;;;;;;;;;10156819;29;20040;-84
2023/09/02 09:39:51;;;;;;;;;;;;;;;;;;10156095;29;20091;-85
2023/09/02 09:44:56;;;;;;;0.32;0.32;;;;;;;;;;10146025;29;19923;-84
2023/09/02 09:50:14;;;;;;;0.50;0.45;;;;;;;;;;10154492;29;20119;-85
2023/09/02 09:55:24;;;;;;;0.40;0.30;;;;;;;;;;10158234;29;20096;-85
2023/09/02 10:00:29;;;;;;;0.45;0.20;;;;;;;;;;10151158;29;20124;-84
2023/09/02 10:05:34;;;;;;;2.10;0.40;;;;;;;;;;10155536;29;20524;-83
2023/09/02 10:10:40;;;;;;;0.25;0.20;;;;;;;;;;10157198;29;20096;-83
2023/09/02 10:15:44;;;;;;;0.10;0.10;;;;;;;;;;10155214;29;20127;-83
2023/09/02 10:20:49;;;;;;;0.20;0.20;;;;;;;;;;10156094;29;20060;-83
2023/09/02 10:26:01;;;;;;;0.20;0.20;;;;;;;;;;10152643;29;20070;-83
2023/09/02 10:47:39;;;;;;;0.10;0.10;;;;;;;;;;11766531;23;20052;-85
2023/09/02 10:52:45;;;;;;;0.82;0.30;;;;;;;;;;10062202;29;20461;-85
2023/09/02 10:57:54;;;;;;;0.95;0.22;;;;;;;;;;10038905;29;20206;-84
2023/09/02 11:03:02;;;;;;;1.05;0.10;;;;;;;;;;10442787;23;20041;-83
2023/09/02 11:08:44;;;;;;;0.30;0.22;;;;;;;;;;10076340;29;20072;-82
2023/09/02 11:14:24;;;;;;;0.43;0.20;;;;;;;;;;10041719;29;20045;-82
2023/09/02 11:19:57;;;;;;;0.38;0.20;;;;;;;;;;10054980;29;20047;-83
2023/09/02 11:25:02;;;;;;;1.15;0.20;;;;;;;;;;10049467;29;20141;-83
2023/09/02 11:30:12;;;;;;;0.30;0.10;;;;;;;;;;10031562;29;20072;-83
2023/09/02 11:35:23;;;;;;;0.28;0.10;;;;;;;;;;10005698;29;20703;-82
2023/09/02 11:40:29;;;;;;;0.68;0.35;;;;;;;;;;10032903;29;20490;-82
2023/09/02 11:45:33;;;;;;;0.68;0.20;;;;;;;;;;10032628;29;20068;-82
2023/09/02 11:50:39;;;;;;;0.20;0.20;;;;;;;;;;10037403;29;20069;-82
2023/09/02 11:55:44;;;;;;;1.58;0.30;;;;;;;;;;10031399;29;20045;-83
2023/09/02 12:00:48;;;;;;;0.55;0.28;;;;;;;;;;10040189;29;20074;-83
2023/09/02 12:05:53;;;;;;;0.22;0.22;;;;;;;;;;10037429;29;20073;-83
2023/09/02 12:11:01;;;;;;;0.10;0.10;;;;;;;;;;10040791;29;20049;-82
2023/09/02 12:16:05;;;;;;;0.10;0.10;;;;;;;;;;10051655;29;20123;-83
2023/09/02 12:21:08;;;;;;;0.57;0.20;;;;;;;;;;10038510;29;20045;-83
2023/09/02 12:26:13;;;;;;;0.47;0.20;;;;;;;;;;10056794;29;20137;-83
2023/09/02 12:31:17;;;;;;;;;;;;;;;;;;10055389;29;20635;-83
2023/09/02 12:36:20;;;;;;;0.30;0.20;;;;;;;;;;10058900;29;19931;-83
2023/09/02 12:41:38;;;;;;;0.35;0.20;;;;;;;;;;10053145;29;20098;-83
2023/09/02 12:46:41;;;;;;;0.05;0.05;;;;;;;;;;10051435;29;20137;-83
2023/09/02 12:51:45;;;;;;;0.22;0.22;;;;;;;;;;10045408;29;20077;-83
2023/09/02 12:56:50;;;;;;;0.40;0.30;;;;;;;;;;10042854;29;20073;-83
2023/09/02 13:01:53;;;;;;;0.30;0.28;;;;;;;;;;10042913;29;20804;-84
2023/09/02 13:06:57;;;;;;;0.45;0.17;;;;;;;;;;10038795;29;20037;-84
2023/09/02 13:12:03;;;;;;;0.40;0.10;;;;;;;;;;10044585;29;20101;-83
2023/09/02 13:17:06;;;;;;;1.02;0.10;;;;;;;;;;10041649;29;20056;-84
2023/09/02 13:22:10;;;;;;;0.25;0.25;;;;;;;;;;10042851;29;20704;-84
2023/09/02 13:27:17;;;;;;;0.40;0.30;;;;;;;;;;10041839;29;20077;-84
2023/09/02 13:32:24;;;;;;;0.60;0.40;;;;;;;;;;10040252;29;20073;-84
2023/09/02 13:37:29;;;;;;;0.98;0.47;;;;;;;;;;10040736;29;20049;-83
2023/09/02 13:42:34;;;;;;;1.45;0.30;;;;;;;;;;10041687;29;20046;-83
2023/09/02 13:47:39;;;;;;;0.20;0.20;;;;;;;;;;10040827;29;20076;-84
2023/09/02 13:52:45;;;;;;;0.95;0.40;;;;;;;;;;10042431;29;20507;-83
2023/09/02 13:57:50;;;;;;;0.17;0.10;;;;;;;;;;10042656;29;20546;-84
2023/09/02 14:02:55;;;;;;;0.65;0.22;;;;;;;;;;10040571;29;20057;-84
2023/09/02 14:08:01;;;;;;;5.47;0.73;;;;;;;;;;10039713;29;20599;-83
2023/09/02 14:13:09;;;;;;;0.57;0.17;;;;;;;;;;10042268;29;20124;-83
2023/09/02 14:18:13;;;;;;;0.80;0.43;;;;;;;;;;10041187;29;20045;-84
2023/09/02 14:23:16;;;;;;;1.35;0.50;;;;;;;;;;10041119;29;20053;-84
2023/09/02 14:28:21;;;;;;;0.28;0.28;;;;;;;;;;10038735;29;20057;-84
2023/09/02 14:33:25;;;;;;;0.25;0.20;;;;;;;;;;10041486;29;20113;-84
2023/09/02 14:38:28;;;;;;;0.40;0.28;;;;;;;;;;10038771;29;20102;-84
2023/09/02 14:43:33;;;;;;;0.40;0.20;;;;;;;;;;10039840;29;20049;-84
2023/09/02 14:48:36;;;;;;;0.10;0.10;;;;;;;;;;10037489;29;20053;-84
2023/09/02 14:53:40;;;;;;;0.40;0.20;;;;;;;;;;10038076;29;20128;-84
2023/09/02 14:58:45;;;;;;;0.10;0.10;;;;;;;;;;10037961;29;20511;-84
2023/09/02 15:03:49;;;;;;;0.82;0.30;;;;;;;;;;10033300;29;20137;-84
2023/09/02 15:08:52;;;;;;;0.10;0.10;;;;;;;;;;10035960;29;20132;-84
2023/09/02 15:13:58;;;;;;;0.10;0.10;;;;;;;;;;10025855;29;20078;-83
2023/09/02 15:19:03;;;;;;;1.27;0.20;;;;;;;;;;10012050;29;20543;-83
2023/09/02 15:24:07;;;;;;;0.30;0.10;;;;;;;;;;10035513;29;20077;-83
2023/09/02 15:29:14;;;;;;;1.20;0.28;;;;;;;;;;10021672;29;20138;-84
2023/09/02 15:34:17;;;;;;;0.75;0.10;;;;;;;;;;10026426;29;20077;-84
2023/09/02 15:39:25;;;;;;;0.10;0.10;;;;;;;;;;10043466;29;20053;-84
2023/09/02 15:44:30;;;;;;;0.15;0.15;;;;;;;;;;10048035;29;20427;-83
2023/09/02 15:49:33;;;;;;;0.10;0.10;;;;;;;;;;10045249;29;20132;-84
2023/09/02 15:54:37;;;;;;;0.70;0.30;;;;;;;;;;10044999;29;20501;-84
2023/09/02 15:59:42;;;;;;;0.17;0.17;;;;;;;;;;10038631;29;20611;-84
2023/09/02 16:04:46;;;;;;;1.40;0.20;;;;;;;;;;10037598;29;20136;-84
2023/09/02 16:09:50;;;;;;;0.10;0.10;;;;;;;;;;10047628;29;20387;-84
2023/09/02 16:14:54;;;;;;;0.35;0.20;;;;;;;;;;10047813;29;20112;-84
2023/09/02 16:19:58;;;;;;;0.40;0.20;;;;;;;;;;10045029;29;20232;-84
2023/09/02 16:25:01;;;;;;;0.20;0.10;;;;;;;;;;10041010;29;20582;-84
2023/09/02 16:30:08;;;;;;;0.20;0.20;;;;;;;;;;10041897;29;20113;-84
2023/09/02 16:35:11;;;;;;;0.57;0.10;;;;;;;;;;10041175;29;20080;-84
2023/09/02 16:40:15;;;;;;;0.22;0.22;;;;;;;;;;10042616;29;20132;-84
2023/09/02 16:45:20;;;;;;;0.20;0.20;;;;;;;;;;10038349;29;20392;-84
2023/09/02 16:50:23;;;;;;;1.00;0.17;;;;;;;;;;10043993;29;20065;-84
2023/09/02 16:55:28;;;;;;;0.10;0.10;;;;;;;;;;10042828;29;20162;-84
2023/09/02 17:22:40;;;;;;;0.50;0.05;;;;;;;;;;11244071;23;20076;-83
2023/09/02 17:27:48;;;;;;;0.30;0.15;;;;;;;;;;10116782;29;20055;-85
2023/09/02 17:32:52;;;;;;;0.20;0.20;;;;;;;;;;10088785;29;20079;-84
2023/09/02 17:37:57;;;;;;;0.35;0.20;;;;;;;;;;10078277;29;20522;-85
2023/09/02 17:43:01;;;;;;;1.55;0.30;;;;;;;;;;10078926;29;20965;-85
2023/09/02 17:48:06;;;;;;;2.00;0.10;;;;;;;;;;10078180;29;20124;-85
2023/09/02 17:53:10;;;;;;;0.40;0.20;;;;;;;;;;10074453;29;20113;-85
2023/09/02 17:58:14;;;;;;;0.57;0.30;;;;;;;;;;10072731;29;20133;-85
2023/09/02 18:03:18;;;;;;;0.57;0.20;;;;;;;;;;10072755;29;20052;-85
2023/09/02 18:08:23;;;;;;;0.63;0.20;;;;;;;;;;10075404;29;20060;-85
2023/09/02 18:13:31;;;;;;;0.30;0.30;;;;;;;;;;10083853;29;20045;-85
2023/09/02 18:18:35;;;;;;;0.70;0.60;;;;;;;;;;10076367;29;20097;-85
2023/09/02 18:23:45;;;;;;;0.67;0.50;;;;;;;;;;10068693;29;20072;-84
2023/09/02 18:28:50;;;;;;;1.75;0.73;;;;;;;;;;10068929;29;20060;-85
2023/09/02 18:33:56;;;;;;;1.73;1.30;;;;;;;;;;10068959;29;20129;-86
2023/09/02 18:39:03;;;;;;;4.05;1.45;;;;;;;;;;10073269;29;20056;-83
2023/09/02 18:44:07;;;;;;;1.85;1.00;;;;;;;;;;10078800;29;20511;-83
2023/09/02 18:49:13;;;;;;;1.85;0.90;;;;;;;;;;10070800;29;20045;-83
2023/09/02 18:54:18;;;;;;;2.38;0.65;;;;;;;;;;10079049;29;20053;-83
2023/09/02 18:59:24;;;;;;;1.20;0.85;;;;;;;;;;10078190;29;20045;-83
2023/09/02 19:04:27;;;;;;;2.45;1.85;;;;;;;;;;10066935;29;20456;-83
2023/09/02 19:09:32;;;;;;;3.45;2.63;;;;;;;;;;10078136;29;20493;-83
2023/09/02 19:14:36;;;;;;;4.67;3.00;;;;;;;;;;10076657;29;20123;-83
2023/09/02 19:19:39;;;;;;;3.17;2.20;;;;;;;;;;10079041;29;20060;-83
2023/09/02 19:24:51;;;;;;;3.55;1.65;;;;;;;;;;10079154;29;20037;-83
2023/09/02 19:29:55;;;;;;;2.00;0.90;;;;;;;;;;10073080;29;20431;-82
2023/09/02 19:35:01;;;;;;;1.80;0.88;;;;;;;;;;10077352;29;20045;-83
2023/09/02 19:40:07;;;;;;;2.58;0.73;;;;;;;;;;10078509;29;20516;-83
2023/09/02 19:45:10;;;;;;;1.60;0.70;;;;;;;;;;10077237;29;20053;-82
2023/09/02 19:50:14;;;;;;;1.33;0.70;;;;;;;;;;10078423;29;20140;-83
2023/09/02 19:55:19;;;;;;;2.97;0.55;;;;;;;;;;10077054;29;20124;-83
2023/09/02 20:00:24;;;;;;;2.90;0.80;;;;;;;;;;10074732;29;20053;-83
2023/09/02 20:05:28;;;;;;;1.80;0.80;;;;;;;;;;10069933;29;20057;-83
2023/09/02 20:10:36;;;;;;;2.85;0.50;;;;;;;;;;10077984;29;20633;-83
2023/09/02 20:15:40;;;;;;;1.33;0.75;;;;;;;;;;10078647;29;20418;-86
2023/09/02 20:20:50;;;;;;;2.38;0.70;;;;;;;;;;10078292;29;20069;-84
2023/09/02 20:25:57;;;;;;;0.85;0.43;;;;;;;;;;10084850;29;20136;-88
2023/09/02 20:31:00;;;;;;;1.27;0.47;;;;;;;;;;10082499;29;20045;-88
2023/09/02 20:36:04;;;;;;;1.02;0.32;;;;;;;;;;10082072;29;20113;-88
2023/09/02 20:41:09;;;;;;;1.23;0.60;;;;;;;;;;10082967;29;20064;-87
2023/09/02 20:46:15;;;;;;;1.08;0.52;;;;;;;;;;10087393;29;20057;-88
2023/09/02 20:51:18;;;;;;;0.65;0.40;;;;;;;;;;10087135;29;20041;-87
2023/09/02 20:56:28;;;;;;;0.68;0.47;;;;;;;;;;10084123;29;20866;-88
2023/09/02 21:01:32;;;;;;;1.80;0.70;;;;;;;;;;10087692;29;20052;-89
2023/09/02 21:06:35;;;;;;;1.30;0.45;;;;;;;;;;10085287;29;20464;-87
2023/09/02 21:11:40;;;;;;;1.02;0.57;;;;;;;;;;10086570;29;20070;-87
2023/09/02 21:16:44;;;;;;;1.23;0.40;;;;;;;;;;10087139;29;20089;-87
2023/09/02 21:21:47;;;;;;;2.22;0.40;;;;;;;;;;10087487;29;20049;-88
2023/09/02 21:26:52;;;;;;;0.30;0.30;;;;;;;;;;10086591;29;20041;-87
2023/09/02 21:31:56;;;;;;;1.00;0.40;;;;;;;;;;10088627;29;20049;-87
2023/09/02 21:36:59;;;;;;;4.25;0.50;;;;;;;;;;10088038;29;20061;-87
2023/09/02 21:42:05;;;;;;;0.40;0.30;;;;;;;;;;10081166;29;20048;-87
2023/09/02 21:47:11;;;;;;;1.23;0.32;;;;;;;;;;10087281;29;20511;-87
2023/09/02 21:52:15;;;;;;;1.27;0.50;;;;;;;;;;10082465;29;20057;-87
2023/09/02 21:57:22;;;;;;;0.82;0.38;;;;;;;;;;10088161;29;20672;-87
2023/09/02 22:02:29;;;;;;;2.55;0.50;;;;;;;;;;10086624;29;20120;-87
2023/09/02 22:07:33;;;;;;;0.60;0.30;;;;;;;;;;10086899;29;20511;-87
2023/09/02 22:12:39;;;;;;;1.08;0.35;;;;;;;;;;10084756;29;20051;-90
2023/09/02 22:17:42;;;;;;;1.75;0.30;;;;;;;;;;10093350;29;20041;-88
2023/09/02 22:22:52;;;;;;;0.70;0.30;;;;;;;;;;10083099;29;20105;-90
2023/09/02 22:27:56;;;;;;;2.13;0.70;;;;;;;;;;10077495;29;20064;-88
2023/09/02 22:33:01;;;;;;;0.60;0.40;;;;;;;;;;10083440;29;20045;-87
2023/09/02 22:38:05;;;;;;;1.13;0.43;;;;;;;;;;10077922;29;20129;-87
2023/09/02 22:43:14;;;;;;;0.40;0.40;;;;;;;;;;10085562;29;20450;-90
2023/09/02 22:48:18;;;;;;;;;;;;;;;;;;10074155;29;20052;-87
2023/09/02 22:53:46;;;;;;;0.70;0.55;;;;;;;;;;10086530;29;19923;-90
2023/09/02 22:58:51;;;;;;;1.98;0.30;;;;;;;;;;10083716;29;20389;-88
2023/09/02 23:03:54;;;;;;;2.20;0.50;;;;;;;;;;10081289;29;20057;-88
2023/09/02 23:08:58;;;;;;;1.25;0.70;;;;;;;;;;10081716;29;20040;-89
2023/09/02 23:14:04;;;;;;;1.15;0.32;;;;;;;;;;10086147;29;20120;-88
2023/09/02 23:19:08;;;;;;;0.52;0.40;;;;;;;;;;10078373;29;20071;-88
2023/09/02 23:24:11;;;;;;;1.48;0.47;;;;;;;;;;10085975;29;20597;-88
2023/09/02 23:29:16;;;;;;;0.22;0.22;;;;;;;;;;10083437;29;20049;-91
2023/09/02 23:34:19;;;;;;;0.43;0.40;;;;;;;;;;10082647;29;20147;-90
2023/09/02 23:39:23;;;;;;;2.47;0.30;;;;;;;;;;10082877;29;20069;-88
2023/09/02 23:44:28;;;;;;;1.52;0.43;;;;;;;;;;10078161;29;20040;-89
2023/09/02 23:49:31;;;;;;;0.60;0.40;;;;;;;;;;10086626;29;20041;-88
2023/09/02 23:54:35;;;;;;;0.32;0.30;;;;;;;;;;10081289;29;20060;-89
2023/09/02 23:59:41;;;;;;;1.45;0.30;;;;;;;;;;10086044;29;20052;-88
